createdAt,value
2023-06-07T00:01:10.030Z,2.90
2023-06-07T00:03:38.170Z,2.75
2023-06-07T00:06:06.887Z,2.90
2023-06-07T00:08:33.845Z,2.83
2023-06-07T00:11:00.791Z,2.80
2023-06-07T00:13:28.114Z,3.63
2023-06-07T00:15:55.242Z,2.90
2023-06-07T00:18:22.566Z,2.30
2023-06-07T00:20:50.776Z,2.72
2023-06-07T00:23:17.954Z,3.70
2023-06-07T00:25:45.174Z,3.35
2023-06-07T00:28:12.125Z,3.90
2023-06-07T00:30:39.808Z,3.78
2023-06-07T00:33:06.707Z,4.78
2023-06-07T00:35:33.561Z,5.90
2023-06-07T00:38:00.371Z,4.78
2023-06-07T00:40:27.260Z,3.40
2023-06-07T00:42:54.168Z,2.50
2023-06-07T00:45:21.117Z,2.80
2023-06-07T00:47:48.052Z,3.90
2023-06-07T00:50:14.939Z,2.15
2023-06-07T00:52:41.879Z,2.33
2023-06-07T00:55:09.562Z,1.92
2023-06-07T00:57:36.587Z,2.47
2023-06-07T01:00:04.181Z,2.30
2023-06-07T01:02:32.059Z,2.17
2023-06-07T01:04:58.977Z,2.30
2023-06-07T01:07:26.333Z,2.20
2023-06-07T01:09:54.200Z,2.08
2023-06-07T01:12:21.287Z,2.42
2023-06-07T01:14:49.061Z,2.33
2023-06-07T01:17:18.419Z,1.77
2023-06-07T01:19:46.787Z,1.90
2023-06-07T01:22:13.496Z,1.80
2023-06-07T01:24:43.648Z,2.10
2023-06-07T01:27:11.377Z,1.67
2023-06-07T01:29:38.311Z,1.70
2023-06-07T01:32:07.323Z,2.15
2023-06-07T01:34:35.754Z,2.20
2023-06-07T01:37:02.588Z,1.73
2023-06-07T01:39:29.409Z,2.45
2023-06-07T01:41:56.205Z,2.00
2023-06-07T01:44:23.043Z,2.00
2023-06-07T01:46:49.963Z,2.53
2023-06-07T01:49:18.953Z,2.58
2023-06-07T01:51:45.836Z,2.58
2023-06-07T01:54:12.716Z,2.92
2023-06-07T01:56:55.498Z,2.33
2023-06-07T01:59:41.857Z,2.00
2023-06-07T02:02:24.660Z,1.88
2023-06-07T02:05:04.053Z,2.10
2023-06-07T02:07:33.822Z,2.00
2023-06-07T02:10:01.179Z,2.15
2023-06-07T02:12:28.233Z,2.05
2023-06-07T02:14:55.206Z,1.90
2023-06-07T02:17:22.061Z,2.25
2023-06-07T02:19:48.950Z,2.05
2023-06-07T02:22:15.731Z,1.83
2023-06-07T02:24:42.637Z,2.00
2023-06-07T02:27:13.896Z,2.20
2023-06-07T02:29:40.825Z,2.13
2023-06-07T02:32:08.434Z,2.20
2023-06-07T02:34:35.492Z,2.45
2023-06-07T02:37:02.288Z,2.75
2023-06-07T02:39:29.646Z,3.28
2023-06-07T02:41:56.538Z,2.65
2023-06-07T02:44:23.546Z,3.13
2023-06-07T02:46:50.452Z,2.78
2023-06-07T02:49:17.461Z,2.50
2023-06-07T02:51:44.422Z,2.78
2023-06-07T02:54:12.074Z,3.53
2023-06-07T02:56:39.096Z,2.75
2023-06-07T02:59:06.286Z,3.03
2023-06-07T03:01:34.586Z,3.15
2023-06-07T03:04:01.593Z,2.47
2023-06-07T03:06:30.873Z,2.40
2023-06-07T03:08:58.023Z,2.15
2023-06-07T03:11:25.019Z,2.60
2023-06-07T03:13:51.839Z,2.35
2023-06-07T03:16:18.867Z,2.88
2023-06-07T03:18:46.038Z,2.80
2023-06-07T03:21:12.834Z,2.95
2023-06-07T03:23:39.694Z,3.15
2023-06-07T03:26:08.723Z,3.70
2023-06-07T03:28:35.976Z,3.75
2023-06-07T03:31:03.659Z,3.30
2023-06-07T03:33:31.042Z,3.65
2023-06-07T03:35:58.665Z,3.95
2023-06-07T03:38:25.457Z,3.35
2023-06-07T03:40:52.342Z,3.80
2023-06-07T03:43:19.231Z,4.75
2023-06-07T03:45:46.130Z,4.47
2023-06-07T03:48:13.208Z,4.70
2023-06-07T03:50:40.233Z,4.15
2023-06-07T03:53:07.227Z,4.45
2023-06-07T03:55:34.707Z,4.30
2023-06-07T03:58:01.673Z,4.00
2023-06-07T04:00:29.190Z,4.10
2023-06-07T04:02:56.984Z,3.17
2023-06-07T04:05:25.919Z,2.70
2023-06-07T04:07:54.569Z,2.55
2023-06-07T04:10:21.535Z,2.13
2023-06-07T04:12:48.335Z,3.05
2023-06-07T04:15:15.196Z,3.75
2023-06-07T04:17:42.211Z,4.07
2023-06-07T04:20:11.189Z,5.35
2023-06-07T04:22:40.030Z,4.63
2023-06-07T04:25:08.217Z,5.28
2023-06-07T04:27:35.793Z,5.05
2023-06-07T04:30:05.766Z,3.92
2023-06-07T04:32:34.791Z,4.90
2023-06-07T04:35:01.726Z,4.45
2023-06-07T04:37:29.142Z,4.93
2023-06-07T04:39:56.960Z,3.38
2023-06-07T04:42:24.731Z,3.33
2023-06-07T04:44:54.225Z,2.85
2023-06-07T04:47:21.176Z,2.10
2023-06-07T04:49:53.586Z,2.70
2023-06-07T04:52:21.533Z,2.70
2023-06-07T04:54:48.592Z,3.40
2023-06-07T04:57:15.613Z,3.75
2023-06-07T04:59:50.076Z,3.38
2023-06-07T05:04:46.102Z,3.40
2023-06-07T05:07:15.163Z,3.30
2023-06-07T05:09:42.037Z,2.80
2023-06-07T05:12:09.300Z,3.38
2023-06-07T05:14:36.106Z,3.35
2023-06-07T05:17:02.836Z,3.38
2023-06-07T05:19:30.999Z,4.85
2023-06-07T05:21:58.190Z,3.35
2023-06-07T05:24:25.146Z,3.88
2023-06-07T05:26:51.955Z,2.45
2023-06-07T05:29:18.972Z,3.20
2023-06-07T05:31:46.914Z,3.30
2023-06-07T05:34:14.225Z,3.10
2023-06-07T05:36:41.335Z,3.20
2023-06-07T05:39:08.450Z,3.20
2023-06-07T05:41:35.995Z,3.53
2023-06-07T05:44:03.106Z,3.10
2023-06-07T05:46:29.818Z,3.03
2023-06-07T05:48:57.005Z,3.10
2023-06-07T05:51:24.047Z,3.22
2023-06-07T05:53:50.889Z,3.17
2023-06-07T05:56:18.262Z,3.33
2023-06-07T05:58:46.050Z,2.70
2023-06-07T06:01:14.437Z,2.72
2023-06-07T06:03:41.546Z,2.95
2023-06-07T06:06:19.016Z,3.10
2023-06-07T06:08:46.553Z,3.10
2023-06-07T06:11:14.251Z,3.17
2023-06-07T06:13:42.016Z,3.20
2023-06-07T06:16:12.102Z,2.75
2023-06-07T06:18:41.083Z,2.97
2023-06-07T06:21:08.107Z,2.88
2023-06-07T06:23:35.846Z,3.10
2023-06-07T06:26:02.783Z,3.05
2023-06-07T06:28:30.393Z,3.00
2023-06-07T06:30:57.708Z,2.80
2023-06-07T06:33:24.597Z,3.10
2023-06-07T06:35:52.008Z,2.75
2023-06-07T06:38:19.398Z,2.75
2023-06-07T06:40:47.448Z,2.70
2023-06-07T06:45:41.051Z,2.90
2023-06-07T06:48:08.047Z,2.20
2023-06-07T06:50:35.042Z,2.22
2023-06-07T06:53:03.227Z,2.95
2023-06-07T06:55:31.070Z,3.75
2023-06-07T06:57:58.194Z,2.50
2023-06-07T07:00:25.137Z,2.45
2023-06-07T07:02:52.731Z,2.60
2023-06-07T07:05:20.001Z,2.88
2023-06-07T07:07:47.911Z,2.83
2023-06-07T07:10:14.821Z,2.75
2023-06-07T07:12:43.000Z,3.17
2023-06-07T07:15:10.134Z,3.47
2023-06-07T07:17:50.386Z,2.58
2023-06-07T07:20:18.678Z,2.47
2023-06-07T07:22:48.075Z,2.80
2023-06-07T07:25:18.199Z,2.70
2023-06-07T07:27:45.356Z,2.67
2023-06-07T07:30:12.586Z,2.45
2023-06-07T07:32:39.990Z,2.55
2023-06-07T07:35:07.470Z,2.85
2023-06-07T07:37:34.513Z,2.53
2023-06-07T07:40:01.550Z,2.67
2023-06-07T07:42:28.482Z,3.17
2023-06-07T07:44:55.616Z,2.90
2023-06-07T07:47:22.448Z,3.17
2023-06-07T07:49:49.753Z,3.08
2023-06-07T07:52:17.375Z,2.85
2023-06-07T07:54:44.542Z,3.30
2023-06-07T07:57:11.810Z,3.22
2023-06-07T07:59:38.630Z,2.78
2023-06-07T08:02:05.711Z,2.63
2023-06-07T08:04:32.545Z,2.88
2023-06-07T08:06:59.303Z,3.03
2023-06-07T08:09:26.346Z,2.75
2023-06-07T08:11:53.295Z,2.92
2023-06-07T08:14:21.671Z,2.83
2023-06-07T08:16:49.550Z,2.63
2023-06-07T08:19:16.622Z,2.88
2023-06-07T08:21:45.133Z,2.85
2023-06-07T08:24:12.653Z,2.88
2023-06-07T08:26:39.666Z,2.83
2023-06-07T08:29:06.560Z,2.78
2023-06-07T08:31:33.525Z,2.60
2023-06-07T08:34:00.886Z,2.60
2023-06-07T08:36:27.715Z,3.00
2023-06-07T08:38:54.649Z,2.70
2023-06-07T08:41:22.600Z,2.72
2023-06-07T08:43:50.925Z,2.75
2023-06-07T08:46:18.571Z,2.53
2023-06-07T08:48:46.422Z,2.75
2023-06-07T08:53:57.590Z,2.75
2023-06-07T08:56:26.103Z,2.60
2023-06-07T08:58:52.900Z,2.40
2023-06-07T09:01:22.300Z,2.42
2023-06-07T09:03:55.672Z,2.40
2023-06-07T09:06:23.742Z,2.95
2023-06-07T09:08:51.101Z,2.80
2023-06-07T09:11:17.910Z,2.08
2023-06-07T09:13:44.781Z,3.10
2023-06-07T09:16:14.378Z,2.53
2023-06-07T09:18:45.609Z,2.85
2023-06-07T09:21:33.648Z,2.22
2023-06-07T09:24:00.973Z,2.28
2023-06-07T09:26:46.151Z,2.83
2023-06-07T09:29:13.105Z,2.42
2023-06-07T09:31:40.045Z,2.20
2023-06-07T09:34:26.526Z,2.63
2023-06-07T09:36:54.486Z,2.35
2023-06-07T09:39:24.282Z,2.40
2023-06-07T09:41:52.716Z,2.00
2023-06-07T09:44:23.681Z,2.50
2023-06-07T09:46:51.496Z,2.40
2023-06-07T09:49:35.837Z,2.30
2023-06-07T09:52:03.976Z,2.00
2023-06-07T09:54:38.362Z,2.53
2023-06-07T09:57:12.746Z,2.88
2023-06-07T09:59:39.971Z,2.60
2023-06-07T10:02:29.435Z,2.47
2023-06-07T10:04:59.494Z,2.28
2023-06-07T10:07:32.039Z,2.67
2023-06-07T10:09:59.097Z,2.60
2023-06-07T10:12:29.266Z,2.03
2023-06-07T10:14:56.242Z,2.38
2023-06-07T10:17:29.081Z,2.25
2023-06-07T10:20:00.657Z,2.00
2023-06-07T10:22:38.015Z,2.17
2023-06-07T10:25:20.074Z,1.95
2023-06-07T10:28:06.382Z,2.10
2023-06-07T10:30:34.326Z,2.05
2023-06-07T10:33:01.723Z,2.08
2023-06-07T10:35:29.612Z,2.13
2023-06-07T10:37:56.682Z,1.90
2023-06-07T10:40:24.226Z,2.00
2023-06-07T10:42:52.333Z,2.35
2023-06-07T10:45:19.888Z,1.75
2023-06-07T10:47:47.440Z,1.90
2023-06-07T10:50:47.377Z,1.80
2023-06-07T10:53:15.118Z,2.05
2023-06-07T10:55:42.376Z,2.00
2023-06-07T10:58:28.924Z,2.22
2023-06-07T11:00:59.811Z,1.90
2023-06-07T11:03:26.876Z,1.83
2023-06-07T11:05:57.509Z,1.98
2023-06-07T11:08:29.256Z,2.08
2023-06-07T11:11:02.970Z,2.08
2023-06-07T11:13:32.948Z,1.90
2023-06-07T11:16:24.985Z,2.10
2023-06-07T11:21:28.715Z,1.83
2023-06-07T11:24:14.341Z,2.15
2023-06-07T11:26:44.647Z,1.80
2023-06-07T11:29:11.606Z,2.38
2023-06-07T11:31:38.701Z,2.00
2023-06-07T11:34:05.689Z,1.73
2023-06-07T11:36:33.525Z,2.10
2023-06-07T11:41:34.857Z,1.90
2023-06-07T11:44:03.188Z,2.13
2023-06-07T11:46:36.765Z,2.10
2023-06-07T11:49:05.206Z,2.28
2023-06-07T11:51:33.451Z,1.95
2023-06-07T11:54:00.759Z,2.22
2023-06-07T11:56:28.940Z,1.95
2023-06-07T11:58:56.082Z,2.10
2023-06-07T12:01:23.274Z,2.25
2023-06-07T12:03:50.421Z,2.00
2023-06-07T12:06:17.399Z,2.20
2023-06-07T12:08:44.491Z,2.22
2023-06-07T12:11:14.982Z,2.38
2023-06-07T12:13:42.214Z,2.90
2023-06-07T12:16:09.496Z,2.70
2023-06-07T12:18:36.964Z,2.20
2023-06-07T12:21:04.729Z,2.25
2023-06-07T12:26:10.907Z,2.20
2023-06-07T12:28:38.734Z,2.35
2023-06-07T12:33:49.454Z,1.92
2023-06-07T12:36:18.012Z,2.55
2023-06-07T12:38:44.985Z,2.10
2023-06-07T12:41:11.967Z,2.22
2023-06-07T12:43:39.091Z,6.35
2023-06-07T12:46:07.385Z,2.28
2023-06-07T12:48:34.823Z,2.17
2023-06-07T12:51:02.848Z,2.38
2023-06-07T12:53:31.667Z,1.92
2023-06-07T12:55:58.731Z,2.00
2023-06-07T12:58:26.035Z,2.40
2023-06-07T13:00:52.986Z,2.05
2023-06-07T13:03:20.846Z,2.22
2023-06-07T13:05:48.827Z,2.63
2023-06-07T13:08:17.597Z,2.63
2023-06-07T13:10:44.707Z,2.25
2023-06-07T13:13:13.087Z,2.10
2023-06-07T13:15:39.912Z,2.30
2023-06-07T13:18:07.224Z,2.08
2023-06-07T13:20:34.223Z,2.75
2023-06-07T13:23:01.119Z,2.60
2023-06-07T13:25:28.282Z,2.70
2023-06-07T13:27:55.385Z,2.35
2023-06-07T13:30:22.422Z,2.42
2023-06-07T13:32:51.034Z,2.50
2023-06-07T13:35:17.940Z,2.80
2023-06-07T13:37:44.999Z,2.47
2023-06-07T13:40:12.526Z,2.20
2023-06-07T13:42:39.754Z,2.33
2023-06-07T13:45:07.706Z,2.28
2023-06-07T13:47:35.021Z,2.17
2023-06-07T13:50:02.325Z,2.60
2023-06-07T13:52:29.984Z,2.58
2023-06-07T13:54:58.351Z,3.00
2023-06-07T13:57:25.447Z,3.00
2023-06-07T13:59:52.578Z,3.03
2023-06-07T14:02:20.202Z,2.88
2023-06-07T14:04:49.797Z,2.75
2023-06-07T14:07:18.942Z,2.97
2023-06-07T14:09:46.866Z,2.90
2023-06-07T14:12:13.960Z,2.70
2023-06-07T14:14:41.272Z,2.75
2023-06-07T14:17:08.455Z,3.10
2023-06-07T14:19:35.942Z,2.90
2023-06-07T14:22:02.815Z,3.15
2023-06-07T14:24:29.708Z,3.17
2023-06-07T14:26:56.444Z,2.47
2023-06-07T14:29:23.198Z,2.97
2023-06-07T14:31:50.247Z,3.00
2023-06-07T14:34:17.212Z,3.17
2023-06-07T14:36:45.012Z,2.78
2023-06-07T14:39:11.847Z,3.30
2023-06-07T14:41:46.342Z,2.83
2023-06-07T14:44:13.160Z,3.40
2023-06-07T14:46:39.949Z,3.03
2023-06-07T14:49:06.786Z,3.63
2023-06-07T14:51:33.658Z,3.15
2023-06-07T14:54:01.323Z,3.70
2023-06-07T14:56:29.123Z,3.42
2023-06-07T14:58:56.315Z,3.03
2023-06-07T15:01:24.514Z,3.03
2023-06-07T15:03:51.542Z,2.90
2023-06-07T15:06:18.445Z,3.10
2023-06-07T15:08:47.681Z,9.18
2023-06-07T15:11:16.424Z,4.93
2023-06-07T15:13:43.419Z,6.10
2023-06-07T15:16:10.200Z,3.78
2023-06-07T15:18:38.343Z,4.13
2023-06-07T15:21:05.839Z,3.53
2023-06-07T15:23:32.670Z,4.00
2023-06-07T15:26:00.890Z,3.67
2023-06-07T15:28:27.970Z,3.28
2023-06-07T15:30:54.994Z,3.47
2023-06-07T15:33:21.909Z,3.22
2023-06-07T15:35:49.473Z,3.17
2023-06-07T15:38:16.320Z,3.50
2023-06-07T15:40:43.575Z,3.70
2023-06-07T15:43:10.372Z,3.60
2023-06-07T15:45:37.203Z,3.22
2023-06-07T15:48:04.209Z,3.45
2023-06-07T15:50:31.731Z,3.08
2023-06-07T15:52:59.082Z,3.55
2023-06-07T15:55:28.680Z,3.45
2023-06-07T15:57:56.638Z,3.47
2023-06-07T16:00:36.679Z,3.35
2023-06-07T16:03:06.098Z,3.17
2023-06-07T16:05:33.464Z,3.50
2023-06-07T16:08:04.844Z,3.53
2023-06-07T16:10:37.744Z,3.47
2023-06-07T16:13:04.471Z,3.50
2023-06-07T16:15:31.578Z,3.47
2023-06-07T16:17:58.439Z,3.58
2023-06-07T16:20:25.471Z,3.42
2023-06-07T16:22:52.646Z,4.15
2023-06-07T16:25:19.978Z,3.60
2023-06-07T16:27:46.951Z,3.30
2023-06-07T16:30:13.929Z,3.90
2023-06-07T16:32:41.000Z,4.28
2023-06-07T16:35:08.202Z,3.63
2023-06-07T16:37:35.841Z,3.47
2023-06-07T16:40:03.248Z,3.90
2023-06-07T16:42:31.113Z,3.80
2023-06-07T16:44:58.224Z,3.50
2023-06-07T16:47:28.120Z,4.20
2023-06-07T16:49:58.749Z,4.07
2023-06-07T16:52:25.790Z,3.55
2023-06-07T16:54:53.012Z,3.95
2023-06-07T16:57:20.252Z,3.92
2023-06-07T16:59:47.140Z,4.15
2023-06-07T17:02:14.043Z,4.00
2023-06-07T17:04:41.445Z,4.45
2023-06-07T17:07:08.380Z,3.88
2023-06-07T17:09:35.333Z,4.22
2023-06-07T17:12:02.285Z,4.38
2023-06-07T17:14:29.225Z,4.85
2023-06-07T17:16:56.277Z,4.72
2023-06-07T17:19:23.370Z,4.68
2023-06-07T17:21:50.522Z,4.47
2023-06-07T17:24:21.069Z,4.78
2023-06-07T17:26:49.009Z,4.82
2023-06-07T17:29:28.787Z,4.18
2023-06-07T17:31:56.698Z,5.88
2023-06-07T17:34:23.526Z,4.20
2023-06-07T17:36:50.589Z,3.85
2023-06-07T17:39:18.639Z,4.18
2023-06-07T17:44:12.438Z,4.50
2023-06-07T17:46:39.466Z,4.63
2023-06-07T17:49:07.370Z,4.00
2023-06-07T17:51:34.241Z,4.65
2023-06-07T17:54:05.900Z,5.68
2023-06-07T17:56:32.796Z,6.18
2023-06-07T17:58:59.698Z,8.15
2023-06-07T18:01:26.921Z,7.00
2023-06-07T18:03:54.782Z,9.63
2023-06-07T18:06:21.767Z,10.38
2023-06-07T18:08:48.675Z,7.68
2023-06-07T18:11:15.594Z,9.52
2023-06-07T18:13:42.619Z,5.22
2023-06-07T18:16:10.135Z,5.22
2023-06-07T18:18:38.388Z,5.40
2023-06-07T18:23:34.229Z,5.40
2023-06-07T18:26:02.772Z,5.72
2023-06-07T18:28:29.617Z,5.30
2023-06-07T18:30:56.867Z,6.70
2023-06-07T18:33:23.734Z,6.53
2023-06-07T18:35:50.736Z,7.25
2023-06-07T18:38:18.094Z,8.27
2023-06-07T18:40:45.192Z,8.65
2023-06-07T18:43:12.913Z,8.55
2023-06-07T18:45:39.929Z,8.60
2023-06-07T18:48:07.003Z,11.73
2023-06-07T18:50:33.868Z,8.30
2023-06-07T18:53:00.850Z,7.55
2023-06-07T18:55:27.830Z,6.85
2023-06-07T18:57:54.826Z,8.27
2023-06-07T19:00:25.954Z,6.82
2023-06-07T19:02:54.558Z,6.28
2023-06-07T19:05:22.852Z,6.13
2023-06-07T19:07:49.756Z,4.78
2023-06-07T19:10:17.048Z,5.00
2023-06-07T19:12:44.599Z,4.80
2023-06-07T19:15:12.642Z,5.28
2023-06-07T19:17:39.476Z,4.95
2023-06-07T19:20:07.480Z,5.03
2023-06-07T19:22:34.321Z,4.70
2023-06-07T19:25:01.284Z,4.60
2023-06-07T19:27:28.127Z,5.05
2023-06-07T19:29:54.974Z,5.13
2023-06-07T19:32:21.860Z,5.20
2023-06-07T19:34:50.150Z,5.43
2023-06-07T19:39:44.211Z,5.20
2023-06-07T19:42:12.486Z,4.90
2023-06-07T19:47:08.727Z,4.40
2023-06-07T19:49:35.609Z,4.40
2023-06-07T19:52:04.085Z,4.15
2023-06-07T19:54:31.171Z,4.22
2023-06-07T19:56:57.960Z,3.72
2023-06-07T19:59:24.794Z,3.95
2023-06-07T20:01:51.671Z,4.20
2023-06-07T20:04:18.559Z,3.35
2023-06-07T20:06:45.589Z,3.50
2023-06-07T20:09:12.350Z,3.38
2023-06-07T20:11:39.175Z,3.75
2023-06-07T20:14:06.072Z,3.45
2023-06-07T20:16:32.822Z,3.45
2023-06-07T20:18:59.850Z,3.17
2023-06-07T20:21:28.072Z,3.53
2023-06-07T20:23:55.010Z,3.28
2023-06-07T20:26:21.741Z,2.60
2023-06-07T20:28:48.564Z,3.22
2023-06-07T20:31:15.372Z,3.22
2023-06-07T20:33:42.228Z,3.40
2023-06-07T20:36:09.512Z,3.45
2023-06-07T20:38:36.272Z,3.30
2023-06-07T20:41:02.982Z,3.83
2023-06-07T20:43:29.981Z,3.88
2023-06-07T20:45:56.830Z,4.15
2023-06-07T20:48:23.729Z,6.05
2023-06-07T20:50:50.568Z,4.15
2023-06-07T20:53:17.521Z,4.55
2023-06-07T20:55:45.053Z,3.65
2023-06-07T20:58:12.329Z,3.08
2023-06-07T21:00:41.310Z,3.30
2023-06-07T21:03:08.902Z,3.17
2023-06-07T21:05:35.968Z,3.47
2023-06-07T21:08:03.696Z,4.40
2023-06-07T21:10:30.652Z,3.70
2023-06-07T21:12:57.471Z,3.45
2023-06-07T21:15:24.828Z,3.15
2023-06-07T21:17:51.818Z,3.10
2023-06-07T21:20:19.033Z,3.28
2023-06-07T21:22:45.925Z,3.47
2023-06-07T21:25:12.770Z,3.42
2023-06-07T21:27:39.710Z,3.45
2023-06-07T21:30:07.569Z,3.22
2023-06-07T21:32:34.694Z,3.30
2023-06-07T21:35:01.679Z,2.95
2023-06-07T21:37:28.424Z,3.83
2023-06-07T21:39:55.588Z,4.13
2023-06-07T21:42:22.360Z,3.30
2023-06-07T21:44:49.328Z,3.33
2023-06-07T21:47:16.306Z,3.60
2023-06-07T21:49:43.603Z,3.42
2023-06-07T21:52:10.804Z,3.92
2023-06-07T21:54:44.884Z,4.38
2023-06-07T21:57:12.330Z,4.35
2023-06-07T21:59:39.328Z,4.13
2023-06-07T22:02:07.804Z,4.10
2023-06-07T22:07:01.540Z,4.13
2023-06-07T22:09:28.492Z,4.35
2023-06-07T22:11:55.742Z,4.28
2023-06-07T22:14:23.111Z,3.70
2023-06-07T22:16:50.679Z,3.50
2023-06-07T22:19:20.295Z,3.55
2023-06-07T22:21:48.651Z,3.53
2023-06-07T22:24:19.866Z,3.70
2023-06-07T22:26:47.205Z,3.90
2023-06-07T22:29:14.360Z,3.50
2023-06-07T22:31:41.381Z,3.70
2023-06-07T22:34:08.494Z,3.88
2023-06-07T22:36:42.515Z,4.13
2023-06-07T22:39:09.727Z,5.32
2023-06-07T22:41:36.724Z,4.65
2023-06-07T22:44:04.184Z,5.05
2023-06-07T22:46:32.416Z,5.00
2023-06-07T22:49:01.995Z,3.83
2023-06-07T22:51:34.300Z,4.78
2023-06-07T22:54:02.133Z,3.85
2023-06-07T22:56:29.239Z,4.05
2023-06-07T22:58:56.562Z,3.50
2023-06-07T23:01:24.494Z,3.60
2023-06-07T23:03:51.772Z,3.85
2023-06-07T23:06:20.884Z,3.28
2023-06-07T23:08:54.644Z,3.38
2023-06-07T23:11:21.887Z,3.47
2023-06-07T23:13:48.834Z,3.95
2023-06-07T23:16:15.867Z,3.40
2023-06-07T23:18:42.619Z,3.70
2023-06-07T23:21:10.233Z,4.07
2023-06-07T23:23:37.077Z,4.60
2023-06-07T23:26:06.304Z,4.80
2023-06-07T23:28:33.145Z,4.30
2023-06-07T23:30:59.946Z,4.43
2023-06-07T23:33:27.912Z,3.47
2023-06-07T23:35:55.923Z,3.53
2023-06-07T23:38:23.864Z,3.90
2023-06-07T23:40:50.899Z,3.85
2023-06-07T23:43:17.856Z,4.47
2023-06-07T23:45:44.854Z,3.72
2023-06-07T23:48:11.950Z,4.32
2023-06-07T23:50:38.784Z,3.95
2023-06-07T23:53:07.833Z,4.38
2023-06-07T23:55:35.584Z,4.03
2023-06-07T23:58:02.929Z,4.40
